Terminal Aerodrome Forecast
Issued by NWS Sterling, VA

Current Version | Previous Version | Graphics & Text | Print | Product List | Glossary On
Versions: 1 2 3 4 5 6 7 8 9 10 11 12 13 14 15 16 17 18 19 20 21 22 23
665
FTUS41 KLWX 111726
TAFIAD
TAF
KIAD 111726Z 1118/1224 27004KT P6SM SCT050 BKN250
     FM112000 19004KT P6SM SCT150 BKN250
     FM120800 17008KT P6SM SCT025 OVC250
     FM121400 22008KT P6SM SCT025 BKN090
     FM121600 26010KT P6SM SCT050 BKN070
     FM121800 28015G23KT P6SM SCT045 BKN050
     FM122200 30016G26KT P6SM FEW060 SCT090=

USA.gov is the U.S. government's official web portal to all federal, state and local government web resources and services.